weather.gov     
National Weather Service

Terminal Aerodrome Forecast
NWS Homepage
This page is being discontinued on March 12, 2014.
The same data is available at this site. Please update your bookmarks.
Thank you, and we apologize for the inconvenience.
Please send an email to SR-SRH.Webmaster@noaa.gov with any concerns.


Current Version
Previous Version:    01  02  03  04  05  06  07  08  09  10  11  12  13  14  15  16  17  18  19  20  21  22  23  
[Printable]
280
FTUS44 KEPZ 181100
TAFELP
TAF
KELP 181120Z 1812/1912 11011KT P6SM BKN250
     FM181900 20012G22KT P6SM SCT120 OVC200
     FM190200 23011KT P6SM VCTS BKN080CB BKN100 OVC200
      TEMPO 1902/1906 VRB27G40KT 6SM -TSRA BKN050CB OVC100
     FM190600 06006KT P6SM VCSH SCT050 BKN080=


U.S. Dept. of Commerce
NOAA National Weather Service
1325 East West Highway
Silver Spring, MD 20910
E-mail: w-nws.webmaster@noaa.gov
Page last modified: May 16, 2007
NATIONAL WEATHER SERVICE: for Safety, for Work, for Fun - FOR LIFE